createdAt,value
2023-02-02T00:00:21.207Z,99912.81
2023-02-02T00:02:47.851Z,99906.78
2023-02-02T00:05:14.552Z,99909.38
2023-02-02T00:07:41.137Z,99893.78
2023-02-02T00:10:08.163Z,99905.00
2023-02-02T00:12:34.750Z,99901.56
2023-02-02T00:15:01.320Z,99907.63
2023-02-02T00:17:27.919Z,99905.91
2023-02-02T00:19:54.502Z,99908.50
2023-02-02T00:22:21.107Z,99910.25
2023-02-02T00:24:47.721Z,99900.69
2023-02-02T00:27:14.286Z,99905.03
2023-02-02T00:29:40.896Z,99910.25
2023-02-02T00:32:10.428Z,99902.38
2023-02-02T00:34:37.007Z,99898.97
2023-02-02T00:37:03.700Z,99888.56
2023-02-02T00:39:30.406Z,99885.13
2023-02-02T00:41:57.017Z,99856.47
2023-02-02T00:44:23.758Z,99824.47
2023-02-02T00:46:50.355Z,99833.91
2023-02-02T00:49:17.191Z,99844.22
2023-02-02T00:51:43.788Z,99829.47
2023-02-02T00:54:10.380Z,99829.56
2023-02-02T00:56:36.964Z,99853.72
2023-02-02T00:59:03.648Z,99863.28
2023-02-02T01:01:30.254Z,99866.78
2023-02-02T01:03:56.839Z,99871.16
2023-02-02T01:06:23.444Z,99872.97
2023-02-02T01:08:50.140Z,99866.84
2023-02-02T01:11:17.650Z,99869.41
2023-02-02T01:13:44.627Z,99877.22
2023-02-02T01:16:12.251Z,99869.47
2023-02-02T01:18:40.305Z,99870.31
2023-02-02T01:21:12.458Z,99860.78
2023-02-02T01:23:40.026Z,99854.66
2023-02-02T01:26:09.271Z,99862.53
2023-02-02T01:28:36.259Z,99861.72
2023-02-02T01:31:08.742Z,99872.97
2023-02-02T01:33:35.451Z,99872.13
2023-02-02T01:36:05.839Z,99886.84
2023-02-02T01:38:33.306Z,99898.13
2023-02-02T01:41:00.239Z,99880.78
2023-02-02T01:43:42.011Z,99891.19
2023-02-02T01:46:24.287Z,99883.38
2023-02-02T01:48:59.656Z,99867.78
2023-02-02T01:51:42.267Z,99870.41
2023-02-02T01:54:13.992Z,99853.06
2023-02-02T01:56:52.238Z,99833.16
2023-02-02T01:59:19.697Z,99821.88
2023-02-02T02:01:48.167Z,99834.03
2023-02-02T02:04:15.865Z,99833.16
2023-02-02T02:06:42.535Z,99830.56
2023-02-02T02:09:09.245Z,99814.09
2023-02-02T02:11:36.154Z,99811.47
2023-02-02T02:14:08.255Z,99817.53
2023-02-02T02:16:53.082Z,99803.69
2023-02-02T02:19:38.096Z,99808.91
2023-02-02T02:22:57.012Z,99797.59
2023-02-02T02:25:59.167Z,99798.47
2023-02-02T02:28:41.801Z,99793.31
2023-02-02T02:31:19.306Z,99801.09
2023-02-02T02:33:45.894Z,99795.06
2023-02-02T02:36:19.984Z,99788.13
2023-02-02T02:39:20.911Z,99805.41
2023-02-02T02:41:56.423Z,99812.34
2023-02-02T02:44:24.759Z,99827.94
2023-02-02T02:46:52.977Z,99831.41
2023-02-02T02:49:19.632Z,99833.16
2023-02-02T02:51:48.325Z,99816.69
2023-02-02T02:54:21.793Z,99822.75
2023-02-02T02:57:18.658Z,99829.69
2023-02-02T03:00:26.941Z,99817.56
2023-02-02T03:03:14.650Z,99824.47
2023-02-02T03:06:01.964Z,99815.78
2023-02-02T03:09:01.535Z,99828.75
2023-02-02T03:11:29.390Z,99807.13
2023-02-02T03:13:56.654Z,99807.13
2023-02-02T03:16:23.256Z,99801.94
2023-02-02T03:18:49.923Z,99807.16
2023-02-02T03:21:16.538Z,99801.91
2023-02-02T03:23:43.122Z,99801.09
2023-02-02T03:26:09.878Z,99800.19
2023-02-02T03:28:36.615Z,99817.44
2023-02-02T03:31:03.394Z,99820.03
2023-02-02T03:33:31.887Z,99832.16
2023-02-02T03:35:58.593Z,99827.00
2023-02-02T03:38:25.229Z,99819.25
2023-02-02T03:40:51.913Z,99820.91
2023-02-02T03:43:22.713Z,99813.94
2023-02-02T03:45:58.527Z,99813.13
2023-02-02T03:48:25.824Z,99809.63
2023-02-02T03:50:53.049Z,99814.84
2023-02-02T03:53:19.959Z,99834.75
2023-02-02T03:55:46.555Z,99845.06
2023-02-02T03:58:13.121Z,99833.00
2023-02-02T04:00:39.739Z,99844.19
2023-02-02T04:03:06.477Z,99834.72
2023-02-02T04:05:33.165Z,99828.59
2023-02-02T04:07:59.751Z,99823.47
2023-02-02T04:10:26.344Z,99830.34
2023-02-02T04:12:52.964Z,99826.00
2023-02-02T04:15:19.540Z,99826.88
2023-02-02T04:17:46.120Z,99832.97
2023-02-02T04:20:12.728Z,99834.72
2023-02-02T04:22:39.429Z,99854.56
2023-02-02T04:25:06.418Z,99849.44
2023-02-02T04:27:33.006Z,99858.88
2023-02-02T04:29:59.706Z,99861.50
2023-02-02T04:32:26.378Z,99872.69
2023-02-02T04:34:52.961Z,99869.22
2023-02-02T04:37:19.529Z,99873.50
2023-02-02T04:39:46.135Z,99867.50
2023-02-02T04:42:12.809Z,99870.22
2023-02-02T04:44:39.403Z,99862.41
2023-02-02T04:47:05.998Z,99873.59
2023-02-02T04:49:32.600Z,99864.00
2023-02-02T04:52:00.741Z,99876.91
2023-02-02T04:54:27.433Z,99870.88
2023-02-02T04:56:54.003Z,99870.97
2023-02-02T04:59:20.591Z,99867.44
2023-02-02T05:01:47.173Z,99866.63
2023-02-02T05:04:13.868Z,99876.06
2023-02-02T05:06:40.489Z,99872.59
2023-02-02T05:09:07.094Z,99871.56
2023-02-02T05:11:33.676Z,99865.75
2023-02-02T05:14:00.439Z,99869.09
2023-02-02T05:16:28.948Z,99868.16
2023-02-02T05:18:57.362Z,99860.44
2023-02-02T05:21:24.550Z,99856.06
2023-02-02T05:23:51.238Z,99875.16
2023-02-02T05:26:24.995Z,99868.22
2023-02-02T05:28:54.907Z,99867.31
2023-02-02T05:31:21.643Z,99876.81
2023-02-02T05:33:48.267Z,99882.06
2023-02-02T05:36:14.850Z,99862.16
2023-02-02T05:38:41.439Z,99871.69
2023-02-02T05:41:08.207Z,99862.09
2023-02-02T05:43:35.064Z,99856.97
2023-02-02T05:46:02.625Z,99868.97
2023-02-02T05:48:29.401Z,99849.97
2023-02-02T05:51:17.280Z,99844.88
2023-02-02T05:53:44.255Z,99847.53
2023-02-02T05:56:11.443Z,99853.59
2023-02-02T05:58:38.050Z,99839.78
2023-02-02T06:01:04.853Z,99847.63
2023-02-02T06:03:31.591Z,99860.56
2023-02-02T06:05:58.483Z,99867.53
2023-02-02T06:08:25.140Z,99872.75
2023-02-02T06:10:51.807Z,99875.25
2023-02-02T06:13:18.500Z,99887.31
2023-02-02T06:15:45.119Z,99887.38
2023-02-02T06:18:11.744Z,99885.66
2023-02-02T06:20:38.882Z,99882.09
2023-02-02T06:23:06.572Z,99880.34
2023-02-02T06:25:33.286Z,99880.38
2023-02-02T06:28:01.095Z,99872.56
2023-02-02T06:30:28.626Z,99890.81
2023-02-02T06:32:55.219Z,99883.84
2023-02-02T06:35:21.941Z,99899.53
2023-02-02T06:37:48.649Z,99884.72
2023-02-02T06:40:15.292Z,99903.72
2023-02-02T06:42:41.884Z,99908.97
2023-02-02T06:45:09.208Z,99915.91
2023-02-02T06:47:35.811Z,99909.00
2023-02-02T06:50:02.697Z,99912.41
2023-02-02T06:52:29.330Z,99915.88
2023-02-02T06:54:55.974Z,99918.44
2023-02-02T06:57:22.620Z,99915.03
2023-02-02T06:59:49.193Z,99929.78
2023-02-02T07:02:15.857Z,99934.16
2023-02-02T07:04:42.549Z,99935.03
2023-02-02T07:07:09.154Z,99932.28
2023-02-02T07:09:35.906Z,99936.63
2023-02-02T07:12:02.620Z,99933.97
2023-02-02T07:14:29.450Z,99944.38
2023-02-02T07:16:56.023Z,99941.00
2023-02-02T07:19:22.836Z,99935.75
2023-02-02T07:21:49.460Z,99926.41
2023-02-02T07:24:16.107Z,99932.44
2023-02-02T07:26:42.842Z,99926.34
2023-02-02T07:29:12.733Z,99928.13
2023-02-02T07:31:39.536Z,99936.75
2023-02-02T07:34:06.637Z,99943.69
2023-02-02T07:36:33.371Z,99959.34
2023-02-02T07:39:00.092Z,99961.91
2023-02-02T07:41:26.650Z,99961.03
2023-02-02T07:43:53.518Z,99971.44
2023-02-02T07:46:20.815Z,99971.53
2023-02-02T07:48:48.192Z,99974.16
2023-02-02T07:51:16.977Z,99964.66
2023-02-02T07:53:48.939Z,99962.09
2023-02-02T07:56:27.035Z,99968.97
2023-02-02T07:58:55.545Z,99959.47
2023-02-02T08:01:23.387Z,99976.84
2023-02-02T08:03:55.151Z,99978.56
2023-02-02T08:06:31.005Z,99973.44
2023-02-02T08:08:58.622Z,99968.19
2023-02-02T08:11:27.505Z,99974.34
2023-02-02T08:13:58.809Z,99979.56
2023-02-02T08:16:27.069Z,99976.94
2023-02-02T08:18:53.914Z,99985.63
2023-02-02T08:21:21.610Z,99978.72
2023-02-02T08:23:48.826Z,99990.88
2023-02-02T08:26:16.600Z,99985.66
2023-02-02T08:28:45.279Z,99992.56
2023-02-02T08:31:15.998Z,99992.56
2023-02-02T08:33:42.939Z,99992.53
2023-02-02T08:36:14.419Z,100004.72
2023-02-02T08:38:41.585Z,99998.56
2023-02-02T08:41:10.447Z,100001.16
2023-02-02T08:43:37.280Z,100006.41
2023-02-02T08:46:05.697Z,100006.38
2023-02-02T08:48:34.124Z,100022.84
2023-02-02T08:51:01.026Z,100021.13
2023-02-02T08:53:28.147Z,100015.94
2023-02-02T08:56:03.273Z,100025.47
2023-02-02T08:58:30.355Z,100028.97
2023-02-02T09:01:08.790Z,100033.28
2023-02-02T09:03:36.016Z,100040.25
2023-02-02T09:06:07.157Z,100036.72
2023-02-02T09:08:34.034Z,100040.19
2023-02-02T09:11:12.653Z,100049.72
2023-02-02T09:13:40.929Z,100048.00
2023-02-02T09:16:10.364Z,100046.25
2023-02-02T09:18:37.020Z,100046.22
2023-02-02T09:21:06.248Z,100044.53
2023-02-02T09:23:34.715Z,100041.88
2023-02-02T09:26:16.461Z,100040.16
2023-02-02T09:28:49.032Z,100034.88
2023-02-02T09:31:15.700Z,100054.03
2023-02-02T09:33:43.039Z,100050.56
2023-02-02T09:36:13.553Z,100044.47
2023-02-02T09:38:40.971Z,100044.44
2023-02-02T09:41:33.011Z,100051.41
2023-02-02T09:44:21.117Z,100045.31
2023-02-02T09:46:55.992Z,100033.94
2023-02-02T09:49:44.223Z,100035.66
2023-02-02T09:52:22.816Z,100043.47
2023-02-02T09:54:52.524Z,100035.59
2023-02-02T09:57:42.238Z,100035.66
2023-02-02T10:00:29.961Z,100030.34
2023-02-02T10:03:25.227Z,100037.34
2023-02-02T10:05:57.419Z,100049.47
2023-02-02T10:08:35.463Z,100035.59
2023-02-02T10:11:26.711Z,100034.63
2023-02-02T10:13:59.900Z,100027.72
2023-02-02T10:16:27.048Z,100031.19
2023-02-02T10:19:02.605Z,100024.97
2023-02-02T10:21:54.426Z,100028.44
2023-02-02T10:24:24.738Z,100028.50
2023-02-02T10:27:00.626Z,100019.91
2023-02-02T10:29:58.769Z,100028.56
2023-02-02T10:32:35.197Z,100034.72
2023-02-02T10:35:14.205Z,100006.84
2023-02-02T10:38:02.834Z,99998.25
2023-02-02T10:40:44.723Z,100002.50
2023-02-02T10:43:35.666Z,100018.91
2023-02-02T10:46:04.950Z,100018.72
2023-02-02T10:48:36.608Z,100025.38
2023-02-02T10:51:12.918Z,100021.97
2023-02-02T10:53:40.408Z,100041.22
2023-02-02T10:56:11.079Z,100041.41
2023-02-02T10:59:12.529Z,100025.56
2023-02-02T11:01:39.202Z,100030.38
2023-02-02T11:04:06.185Z,100026.00
2023-02-02T11:06:33.011Z,100021.69
2023-02-02T11:08:59.737Z,100028.78
2023-02-02T11:11:33.064Z,100020.69
2023-02-02T11:14:10.698Z,100029.84
2023-02-02T11:16:43.960Z,100029.22
2023-02-02T11:19:17.148Z,100030.91
2023-02-02T11:21:52.247Z,100023.31
2023-02-02T11:24:26.759Z,100022.47
2023-02-02T11:26:59.416Z,100029.72
2023-02-02T11:29:33.854Z,100030.53
2023-02-02T11:32:19.238Z,100022.94
2023-02-02T11:34:46.506Z,100039.34
2023-02-02T11:37:16.060Z,100018.47
2023-02-02T11:39:44.143Z,100022.69
2023-02-02T11:42:17.448Z,100044.59
2023-02-02T11:44:54.571Z,100026.53
2023-02-02T11:47:30.472Z,100037.50
2023-02-02T11:50:01.218Z,100031.34
2023-02-02T11:52:32.714Z,100027.78
2023-02-02T11:55:14.580Z,100036.84
2023-02-02T11:57:41.362Z,100033.31
2023-02-02T12:00:10.886Z,100030.78
2023-02-02T12:02:37.515Z,100027.31
2023-02-02T12:05:10.139Z,100029.91
2023-02-02T12:07:36.864Z,100025.63
2023-02-02T12:10:36.363Z,100038.78
2023-02-02T12:13:27.954Z,100034.44
2023-02-02T12:16:21.962Z,100038.69
2023-02-02T12:19:04.833Z,100024.06
2023-02-02T12:21:39.991Z,100025.00
2023-02-02T12:24:31.773Z,100017.19
2023-02-02T12:27:21.696Z,100021.41
2023-02-02T12:30:32.494Z,100023.03
2023-02-02T12:33:36.757Z,100031.81
2023-02-02T12:36:21.939Z,100018.91
2023-02-02T12:39:33.372Z,100016.31
2023-02-02T12:42:17.984Z,100012.84
2023-02-02T12:45:00.417Z,100017.19
2023-02-02T12:47:51.809Z,100014.56
2023-02-02T12:51:09.599Z,100015.47
2023-02-02T12:54:33.297Z,100019.78
2023-02-02T12:56:55.060Z,100031.16
2023-02-02T12:59:59.176Z,100019.06
2023-02-02T13:03:13.642Z,100011.16
2023-02-02T13:06:15.887Z,100021.66
2023-02-02T13:08:57.691Z,100018.16
2023-02-02T13:11:43.947Z,100026.06
2023-02-02T13:14:16.679Z,100032.13
2023-02-02T13:16:47.727Z,100029.59
2023-02-02T13:19:37.221Z,100028.56
2023-02-02T13:22:09.071Z,100039.00
2023-02-02T13:24:40.550Z,100045.19
2023-02-02T13:27:14.066Z,100034.75
2023-02-02T13:29:58.724Z,100037.34
2023-02-02T13:32:31.515Z,100030.38
2023-02-02T13:35:28.942Z,100041.69
2023-02-02T13:38:06.917Z,100042.53
2023-02-02T13:40:41.820Z,100031.31
2023-02-02T13:43:11.652Z,100044.38
2023-02-02T13:46:16.641Z,100034.72
2023-02-02T13:48:58.104Z,100041.72
2023-02-02T13:51:43.106Z,100053.09
2023-02-02T13:54:49.104Z,100040.91
2023-02-02T13:57:30.881Z,100048.72
2023-02-02T14:00:12.412Z,100044.41
2023-02-02T14:02:52.988Z,100044.44
2023-02-02T14:05:35.834Z,100054.88
2023-02-02T14:08:08.725Z,100060.94
2023-02-02T14:10:53.084Z,100050.53
2023-02-02T14:13:26.794Z,100050.50
2023-02-02T14:15:55.794Z,100041.75
2023-02-02T14:18:50.095Z,100043.53
2023-02-02T14:21:31.787Z,100044.38
2023-02-02T14:24:00.880Z,100040.09
2023-02-02T14:26:46.637Z,100046.13
2023-02-02T14:29:31.968Z,100048.81
2023-02-02T14:31:58.591Z,100038.28
2023-02-02T14:34:32.023Z,100044.34
2023-02-02T14:37:20.530Z,100060.84
2023-02-02T14:39:57.338Z,100051.34
2023-02-02T14:42:29.872Z,100054.84
2023-02-02T14:45:28.000Z,100057.47
2023-02-02T14:48:19.530Z,100067.84
2023-02-02T14:50:53.498Z,100065.28
2023-02-02T14:53:29.604Z,100065.31
2023-02-02T14:56:03.578Z,100070.53
2023-02-02T14:58:34.208Z,100074.03
2023-02-02T15:01:10.070Z,100075.72
2023-02-02T15:03:47.879Z,100076.63
2023-02-02T15:06:32.911Z,100084.44
2023-02-02T15:09:21.337Z,100086.16
2023-02-02T15:12:01.502Z,100083.53
2023-02-02T15:14:28.406Z,100086.16
2023-02-02T15:16:55.325Z,100093.97
2023-02-02T15:19:30.697Z,100097.41
2023-02-02T15:22:12.368Z,100089.66
2023-02-02T15:24:39.224Z,100094.03
2023-02-02T15:27:18.344Z,100096.59
2023-02-02T15:29:49.701Z,100100.09
2023-02-02T15:32:20.658Z,100096.63
2023-02-02T15:34:51.661Z,100106.13
2023-02-02T15:37:23.645Z,100111.38
2023-02-02T15:39:57.573Z,100106.16
2023-02-02T15:42:33.712Z,100122.69
2023-02-02T15:45:00.364Z,100124.38
2023-02-02T15:47:37.949Z,100120.06
2023-02-02T15:50:18.059Z,100121.81
2023-02-02T15:52:50.052Z,100114.81
2023-02-02T15:55:25.373Z,100126.13
2023-02-02T15:57:54.165Z,100123.56
2023-02-02T16:00:31.094Z,100134.84
2023-02-02T16:03:07.836Z,100131.34
2023-02-02T16:05:34.367Z,100140.94
2023-02-02T16:08:12.983Z,100121.84
2023-02-02T16:10:39.661Z,100130.53
2023-02-02T16:13:06.409Z,100144.38
2023-02-02T16:15:33.126Z,100130.53
2023-02-02T16:18:01.511Z,100138.34
2023-02-02T16:20:31.406Z,100149.59
2023-02-02T16:22:58.857Z,100145.28
2023-02-02T16:25:26.022Z,100148.75
2023-02-02T16:27:53.056Z,100166.97
2023-02-02T16:30:22.597Z,100171.28
2023-02-02T16:32:49.207Z,100179.06
2023-02-02T16:35:37.512Z,100174.75
2023-02-02T16:38:32.282Z,100189.50
2023-02-02T16:41:06.485Z,100183.41
2023-02-02T16:43:34.704Z,100192.97
2023-02-02T16:46:09.115Z,100194.75
2023-02-02T16:48:39.449Z,100205.16
2023-02-02T16:51:15.369Z,100213.75
2023-02-02T16:53:56.504Z,100217.25
2023-02-02T16:56:34.652Z,100218.94
2023-02-02T16:59:22.977Z,100234.63
2023-02-02T17:01:53.354Z,100239.78
2023-02-02T17:04:32.132Z,100251.91
2023-02-02T17:07:11.730Z,100246.69
2023-02-02T17:09:41.380Z,100265.00
2023-02-02T17:12:32.644Z,100274.59
2023-02-02T17:15:03.788Z,100277.16
2023-02-02T17:17:31.055Z,100273.63
2023-02-02T17:19:57.647Z,100280.66
2023-02-02T17:22:26.078Z,100279.78
2023-02-02T17:24:53.027Z,100284.84
2023-02-02T17:27:32.638Z,100281.41
2023-02-02T17:30:02.479Z,100290.94
2023-02-02T17:32:29.239Z,100284.88
2023-02-02T17:34:55.998Z,100292.78
2023-02-02T17:37:22.586Z,100298.00
2023-02-02T17:39:49.167Z,100309.19
2023-02-02T17:42:28.045Z,100310.13
2023-02-02T17:44:54.634Z,100308.41
2023-02-02T17:47:21.244Z,100311.78
2023-02-02T17:49:47.884Z,100309.97
2023-02-02T17:52:14.540Z,100306.56
2023-02-02T17:54:41.132Z,100314.44
2023-02-02T17:57:07.720Z,100310.81
2023-02-02T17:59:34.319Z,100310.06
2023-02-02T18:02:01.781Z,100319.50
2023-02-02T18:04:28.613Z,100320.41
2023-02-02T18:06:55.284Z,100332.50
2023-02-02T18:09:21.871Z,100343.69
2023-02-02T18:11:48.563Z,100335.03
2023-02-02T18:14:15.398Z,100343.72
2023-02-02T18:16:42.029Z,100334.97
2023-02-02T18:19:08.795Z,100337.59
2023-02-02T18:21:35.460Z,100331.28
2023-02-02T18:24:02.033Z,100333.97
2023-02-02T18:26:28.720Z,100310.56
2023-02-02T18:28:57.799Z,100333.88
2023-02-02T18:31:24.562Z,100326.84
2023-02-02T18:33:51.243Z,100325.25
2023-02-02T18:36:20.674Z,100327.84
2023-02-02T18:38:48.949Z,100340.03
2023-02-02T18:41:17.931Z,100337.38
2023-02-02T18:43:44.984Z,100341.75
2023-02-02T18:46:14.186Z,100348.66
2023-02-02T18:48:41.938Z,100349.53
2023-02-02T18:51:13.448Z,100344.44
2023-02-02T18:53:40.030Z,100350.50
2023-02-02T18:56:08.525Z,100353.06
2023-02-02T18:58:35.462Z,100359.91
2023-02-02T19:01:17.140Z,100358.06
2023-02-02T19:03:49.076Z,100359.81
2023-02-02T19:06:16.400Z,100368.50
2023-02-02T19:08:43.006Z,100360.69
2023-02-02T19:11:16.793Z,100368.44
2023-02-02T19:13:44.803Z,100373.63
2023-02-02T19:16:20.297Z,100369.44
2023-02-02T19:18:46.949Z,100367.66
2023-02-02T19:21:14.612Z,100371.16
2023-02-02T19:23:43.357Z,100365.06
2023-02-02T19:26:22.728Z,100366.75
2023-02-02T19:28:49.492Z,100386.56
2023-02-02T19:31:17.082Z,100379.72
2023-02-02T19:33:51.881Z,100386.63
2023-02-02T19:36:24.012Z,100377.97
2023-02-02T19:38:55.982Z,100373.59
2023-02-02T19:41:24.943Z,100372.75
2023-02-02T19:43:56.205Z,100393.50
2023-02-02T19:46:25.990Z,100376.22
2023-02-02T19:49:19.878Z,100386.53
2023-02-02T19:51:53.930Z,100373.66
2023-02-02T19:54:32.343Z,100374.34
2023-02-02T19:57:13.415Z,100385.66
2023-02-02T19:59:42.843Z,100387.25
2023-02-02T20:02:37.049Z,100400.28
2023-02-02T20:05:27.982Z,100402.06
2023-02-02T20:08:15.668Z,100408.06
2023-02-02T20:10:43.613Z,100417.47
2023-02-02T20:13:34.782Z,100425.31
2023-02-02T20:16:04.377Z,100422.66
2023-02-02T20:18:43.799Z,100421.63
2023-02-02T20:21:19.870Z,100412.22
2023-02-02T20:23:46.693Z,100411.97
2023-02-02T20:26:26.503Z,100411.13
2023-02-02T20:28:58.301Z,100409.47
2023-02-02T20:31:35.101Z,100411.16
2023-02-02T20:34:15.741Z,100418.91
2023-02-02T20:36:43.979Z,100422.34
2023-02-02T20:39:19.776Z,100415.47
2023-02-02T20:41:46.372Z,100430.97
2023-02-02T20:44:12.966Z,100419.75
2023-02-02T20:46:39.803Z,100432.06
2023-02-02T20:49:07.098Z,100423.31
2023-02-02T20:51:33.702Z,100420.78
2023-02-02T20:54:00.465Z,100412.88
2023-02-02T20:56:27.077Z,100416.41
2023-02-02T20:58:53.769Z,100420.44
2023-02-02T21:01:20.417Z,100435.38
2023-02-02T21:03:47.108Z,100445.06
2023-02-02T21:06:13.783Z,100450.28
2023-02-02T21:08:40.367Z,100445.16
2023-02-02T21:11:06.953Z,100462.28
2023-02-02T21:13:34.636Z,100452.59
2023-02-02T21:16:01.276Z,100448.03
2023-02-02T21:18:27.902Z,100447.44
2023-02-02T21:20:54.607Z,100458.69
2023-02-02T21:23:21.199Z,100452.53
2023-02-02T21:25:48.197Z,100456.84
2023-02-02T21:28:14.824Z,100475.88
2023-02-02T21:30:41.685Z,100467.31
2023-02-02T21:33:08.494Z,100474.97
2023-02-02T21:35:35.071Z,100462.59
2023-02-02T21:38:09.863Z,100463.47
2023-02-02T21:40:36.452Z,100469.53
2023-02-02T21:43:14.797Z,100474.78
2023-02-02T21:45:43.279Z,100483.56
2023-02-02T21:48:33.771Z,100466.22
2023-02-02T21:51:34.703Z,100480.72
2023-02-02T21:54:21.430Z,100492.75
2023-02-02T21:56:48.468Z,100505.94
2023-02-02T21:59:21.449Z,100515.59
2023-02-02T22:01:50.091Z,100516.41
2023-02-02T22:04:35.153Z,100527.31
2023-02-02T22:07:13.040Z,100525.94
2023-02-02T22:09:44.886Z,100525.75
2023-02-02T22:12:18.466Z,100528.41
2023-02-02T22:14:45.764Z,100538.78
2023-02-02T22:17:21.190Z,100545.50
2023-02-02T22:19:49.556Z,100546.69
2023-02-02T22:22:19.124Z,100552.44
2023-02-02T22:24:50.731Z,100556.91
2023-02-02T22:27:20.819Z,100556.66
2023-02-02T22:29:57.324Z,100569.66
2023-02-02T22:32:23.956Z,100567.13
2023-02-02T22:34:50.801Z,100573.09
2023-02-02T22:37:17.408Z,100579.19
2023-02-02T22:39:44.022Z,100589.69
2023-02-02T22:42:10.726Z,100588.81
2023-02-02T22:44:37.371Z,100594.75
2023-02-02T22:47:04.119Z,100586.75
2023-02-02T22:49:30.803Z,100599.63
2023-02-02T22:51:57.416Z,100620.59
2023-02-02T22:54:24.148Z,100605.81
2023-02-02T22:56:51.924Z,100603.13
2023-02-02T22:59:18.516Z,100601.06
2023-02-02T23:01:45.103Z,100608.09
2023-02-02T23:04:11.765Z,100601.31
2023-02-02T23:06:38.532Z,100610.63
2023-02-02T23:09:05.144Z,100616.75
2023-02-02T23:11:31.730Z,100618.66
2023-02-02T23:13:58.324Z,100611.75
2023-02-02T23:16:25.054Z,100612.34
2023-02-02T23:18:51.712Z,100603.53
2023-02-02T23:21:18.300Z,100609.88
2023-02-02T23:23:44.902Z,100624.66
2023-02-02T23:26:11.467Z,100628.81
2023-02-02T23:28:38.067Z,100633.81
2023-02-02T23:31:04.909Z,100639.72
2023-02-02T23:33:31.694Z,100646.88
2023-02-02T23:35:58.454Z,100651.91
2023-02-02T23:38:25.069Z,100651.06
2023-02-02T23:40:51.685Z,100655.28
2023-02-02T23:43:18.297Z,100665.28
2023-02-02T23:45:44.896Z,100668.59
2023-02-02T23:48:11.599Z,100670.75
2023-02-02T23:50:38.574Z,100682.78
2023-02-02T23:53:10.081Z,100692.16
2023-02-02T23:55:37.245Z,100692.94
2023-02-02T23:58:03.851Z,100706.06
